createdAt,value
2024-01-26T00:00:32.785Z,102088.53
2024-01-26T00:03:01.141Z,102090.16
2024-01-26T00:05:28.703Z,102084.44
2024-01-26T00:07:56.260Z,102086.34
2024-01-26T00:10:24.083Z,102080.03
2024-01-26T00:12:51.435Z,102073.47
2024-01-26T00:15:19.563Z,102080.28
2024-01-26T00:17:46.914Z,102084.91
2024-01-26T00:20:14.542Z,102077.56
2024-01-26T00:22:41.836Z,102087.13
2024-01-26T00:25:09.919Z,102090.91
2024-01-26T00:27:37.646Z,102083.53
2024-01-26T00:30:08.107Z,102098.00
2024-01-26T00:32:35.739Z,102087.66
2024-01-26T00:35:03.259Z,102099.09
2024-01-26T00:37:30.919Z,102098.06
2024-01-26T00:39:59.094Z,102093.13
2024-01-26T00:42:26.578Z,102101.53
2024-01-26T00:44:55.146Z,102106.97
2024-01-26T00:47:22.444Z,102103.44
2024-01-26T00:49:52.970Z,102097.25
2024-01-26T00:52:20.845Z,102101.31
2024-01-26T00:54:48.154Z,102111.38
2024-01-26T00:57:15.504Z,102101.59
2024-01-26T00:59:42.955Z,102101.31
2024-01-26T01:02:10.453Z,102106.50
2024-01-26T01:04:37.982Z,102104.88
2024-01-26T01:07:05.618Z,102091.19
2024-01-26T01:09:36.214Z,102097.78
2024-01-26T01:12:04.148Z,102101.28
2024-01-26T01:14:32.035Z,102096.91
2024-01-26T01:16:59.443Z,102107.25
2024-01-26T01:19:26.901Z,102105.06
2024-01-26T01:21:54.503Z,102107.78
2024-01-26T01:24:21.781Z,102108.09
2024-01-26T01:26:49.118Z,102114.63
2024-01-26T01:29:16.695Z,102107.03
2024-01-26T01:31:43.956Z,102097.50
2024-01-26T01:34:11.450Z,102102.41
2024-01-26T01:36:38.944Z,102099.13
2024-01-26T01:39:06.295Z,102108.41
2024-01-26T01:41:34.110Z,102114.41
2024-01-26T01:44:01.410Z,102113.06
2024-01-26T01:46:28.883Z,102103.75
2024-01-26T01:48:56.624Z,102116.03
2024-01-26T01:51:25.241Z,102103.22
2024-01-26T01:53:53.434Z,102098.59
2024-01-26T01:56:24.548Z,102109.50
2024-01-26T01:58:53.293Z,102103.22
2024-01-26T02:01:20.923Z,102096.69
2024-01-26T02:03:48.289Z,102102.97
2024-01-26T02:06:16.093Z,102100.75
2024-01-26T02:08:43.868Z,102105.69
2024-01-26T02:11:12.363Z,102103.50
2024-01-26T02:13:39.747Z,102111.38
2024-01-26T02:16:07.717Z,102118.16
2024-01-26T02:18:35.193Z,102123.59
2024-01-26T02:21:02.555Z,102105.91
2024-01-26T02:23:30.008Z,102111.34
2024-01-26T02:25:57.325Z,102114.88
2024-01-26T02:28:24.765Z,102120.34
2024-01-26T02:30:52.152Z,102125.50
2024-01-26T02:33:19.828Z,102132.81
2024-01-26T02:35:47.392Z,102125.72
2024-01-26T02:38:14.891Z,102122.19
2024-01-26T02:40:42.235Z,102115.94
2024-01-26T02:43:09.656Z,102115.66
2024-01-26T02:45:36.911Z,102121.38
2024-01-26T02:48:05.505Z,102115.94
2024-01-26T02:50:34.879Z,102111.56
2024-01-26T02:53:02.325Z,102106.66
2024-01-26T02:55:29.523Z,102122.22
2024-01-26T02:57:57.126Z,102124.94
2024-01-26T03:00:24.484Z,102120.88
2024-01-26T03:02:52.165Z,102130.13
2024-01-26T03:05:19.377Z,102137.50
2024-01-26T03:07:46.859Z,102129.84
2024-01-26T03:10:14.306Z,102139.94
2024-01-26T03:12:41.827Z,102134.47
2024-01-26T03:15:09.378Z,102135.56
2024-01-26T03:17:37.388Z,102133.13
2024-01-26T03:20:05.208Z,102134.22
2024-01-26T03:22:32.794Z,102142.44
2024-01-26T03:25:00.202Z,102136.72
2024-01-26T03:27:29.004Z,102132.38
2024-01-26T03:29:56.457Z,102128.00
2024-01-26T03:32:23.954Z,102139.66
2024-01-26T03:34:51.340Z,102147.28
2024-01-26T03:37:18.824Z,102149.16
2024-01-26T03:39:46.068Z,102152.19
2024-01-26T03:42:13.520Z,102151.34
2024-01-26T03:44:42.212Z,102153.00
2024-01-26T03:47:10.359Z,102150.75
2024-01-26T03:49:42.386Z,102145.31
2024-01-26T03:52:09.824Z,102142.31
2024-01-26T03:54:37.224Z,102142.03
2024-01-26T03:57:06.802Z,102150.75
2024-01-26T03:59:34.306Z,102148.56
2024-01-26T04:02:01.670Z,102146.91
2024-01-26T04:04:29.053Z,102156.16
2024-01-26T04:06:56.498Z,102150.19
2024-01-26T04:09:23.833Z,102159.47
2024-01-26T04:11:51.269Z,102149.63
2024-01-26T04:14:21.538Z,102149.09
2024-01-26T04:16:49.367Z,102150.19
2024-01-26T04:19:16.833Z,102147.47
2024-01-26T04:21:44.376Z,102148.56
2024-01-26T04:24:11.765Z,102150.47
2024-01-26T04:26:39.170Z,102152.09
2024-01-26T04:29:06.503Z,102153.16
2024-01-26T04:31:33.821Z,102153.16
2024-01-26T04:34:01.282Z,102156.44
2024-01-26T04:36:28.892Z,102161.84
2024-01-26T04:38:56.792Z,102167.53
2024-01-26T04:41:24.185Z,102161.25
2024-01-26T04:43:51.560Z,102157.69
2024-01-26T04:46:18.920Z,102159.28
2024-01-26T04:48:46.376Z,102165.31
2024-01-26T04:51:13.831Z,102167.16
2024-01-26T04:53:41.153Z,102174.50
2024-01-26T04:56:11.959Z,102179.38
2024-01-26T04:58:39.848Z,102179.91
2024-01-26T05:01:08.246Z,102168.44
2024-01-26T05:03:35.783Z,102176.06
2024-01-26T05:06:03.404Z,102191.81
2024-01-26T05:08:31.177Z,102178.22
2024-01-26T05:10:58.562Z,102185.78
2024-01-26T05:13:25.982Z,102183.59
2024-01-26T05:15:53.267Z,102191.47
2024-01-26T05:18:20.888Z,102185.75
2024-01-26T05:20:48.293Z,102190.66
2024-01-26T05:23:15.528Z,102199.34
2024-01-26T05:25:43.372Z,102189.56
2024-01-26T05:28:10.856Z,102193.31
2024-01-26T05:30:38.243Z,102205.53
2024-01-26T05:33:05.943Z,102204.41
2024-01-26T05:35:33.388Z,102195.38
2024-01-26T05:38:00.663Z,102214.19
2024-01-26T05:40:28.081Z,102222.03
2024-01-26T05:42:55.448Z,102228.28
2024-01-26T05:45:23.317Z,102227.72
2024-01-26T05:47:51.117Z,102230.44
2024-01-26T05:50:18.605Z,102231.28
2024-01-26T05:52:45.880Z,102236.72
2024-01-26T05:55:13.439Z,102236.97
2024-01-26T05:57:40.926Z,102241.06
2024-01-26T06:00:09.476Z,102248.41
2024-01-26T06:02:36.873Z,102252.75
2024-01-26T06:05:04.733Z,102252.75
2024-01-26T06:07:32.321Z,102261.78
2024-01-26T06:09:59.782Z,102266.06
2024-01-26T06:12:27.166Z,102256.59
2024-01-26T06:14:54.561Z,102267.47
2024-01-26T06:17:22.131Z,102264.00
2024-01-26T06:19:49.396Z,102257.75
2024-01-26T06:22:16.899Z,102263.63
2024-01-26T06:24:44.253Z,102263.00
2024-01-26T06:27:14.264Z,102258.00
2024-01-26T06:29:42.473Z,102263.25
2024-01-26T06:32:09.924Z,102260.59
2024-01-26T06:34:42.069Z,102262.50
2024-01-26T06:37:09.787Z,102269.91
2024-01-26T06:39:37.097Z,102272.34
2024-01-26T06:42:04.931Z,102270.69
2024-01-26T06:44:35.583Z,102265.53
2024-01-26T06:47:03.174Z,102260.97
2024-01-26T06:49:30.851Z,102259.91
2024-01-26T06:51:58.260Z,102266.19
2024-01-26T06:54:25.702Z,102267.03
2024-01-26T06:56:53.170Z,102269.00
2024-01-26T06:59:20.515Z,102268.75
2024-01-26T07:01:47.820Z,102272.03
2024-01-26T07:04:15.329Z,102277.50
2024-01-26T07:06:42.805Z,102269.34
2024-01-26T07:09:10.282Z,102275.34
2024-01-26T07:11:39.684Z,102277.53
2024-01-26T07:14:07.284Z,102272.06
2024-01-26T07:16:34.604Z,102272.59
2024-01-26T07:19:02.214Z,102277.25
2024-01-26T07:21:29.637Z,102281.34
2024-01-26T07:23:57.041Z,102282.97
2024-01-26T07:26:24.391Z,102287.34
2024-01-26T07:28:51.821Z,102283.75
2024-01-26T07:31:20.533Z,102282.38
2024-01-26T07:33:47.956Z,102287.50
2024-01-26T07:36:15.552Z,102284.47
2024-01-26T07:38:43.014Z,102294.00
2024-01-26T07:41:10.324Z,102301.34
2024-01-26T07:43:37.673Z,102295.06
2024-01-26T07:46:05.618Z,102296.94
2024-01-26T07:48:33.180Z,102301.81
2024-01-26T07:51:00.536Z,102294.38
2024-01-26T07:53:27.953Z,102290.28
2024-01-26T07:55:55.785Z,102305.81
2024-01-26T07:58:23.666Z,102300.84
2024-01-26T08:00:51.172Z,102299.72
2024-01-26T08:03:18.733Z,102302.16
2024-01-26T08:05:46.181Z,102304.94
2024-01-26T08:08:13.778Z,102309.63
2024-01-26T08:10:41.162Z,102314.31
2024-01-26T08:13:11.106Z,102316.75
2024-01-26T08:15:38.606Z,102310.72
2024-01-26T08:18:06.217Z,102320.78
2024-01-26T08:20:34.709Z,102327.53
2024-01-26T08:23:02.411Z,102334.53
2024-01-26T08:25:29.747Z,102323.06
2024-01-26T08:27:57.234Z,102325.16
2024-01-26T08:30:25.224Z,102324.03
2024-01-26T08:32:53.447Z,102326.94
2024-01-26T08:35:21.045Z,102331.75
2024-01-26T08:37:48.702Z,102344.28
2024-01-26T08:40:16.147Z,102348.34
2024-01-26T08:42:46.085Z,102347.94
2024-01-26T08:45:13.919Z,102345.03
2024-01-26T08:47:42.420Z,102347.22
2024-01-26T08:50:10.511Z,102356.56
2024-01-26T08:52:38.305Z,102358.59
2024-01-26T08:55:07.149Z,102347.88
2024-01-26T08:57:34.612Z,102354.13
2024-01-26T09:00:05.770Z,102346.94
2024-01-26T09:02:33.366Z,102352.06
2024-01-26T09:05:02.875Z,102343.16
2024-01-26T09:07:30.648Z,102345.94
2024-01-26T09:09:58.054Z,102344.94
2024-01-26T09:12:26.505Z,102344.84
2024-01-26T09:14:53.968Z,102348.66
2024-01-26T09:17:21.272Z,102361.38
2024-01-26T09:19:48.810Z,102354.50
2024-01-26T09:22:16.295Z,102356.97
2024-01-26T09:24:43.662Z,102360.22
2024-01-26T09:27:11.182Z,102355.84
2024-01-26T09:29:38.711Z,102359.63
2024-01-26T09:32:06.632Z,102352.75
2024-01-26T09:34:34.286Z,102342.91
2024-01-26T09:37:02.041Z,102348.94
2024-01-26T09:39:29.445Z,102353.63
2024-01-26T09:41:57.236Z,102353.53
2024-01-26T09:44:24.691Z,102357.38
2024-01-26T09:46:52.130Z,102361.47
2024-01-26T09:49:19.449Z,102360.28
2024-01-26T09:51:47.137Z,102359.41
2024-01-26T09:54:16.710Z,102346.03
2024-01-26T09:56:44.726Z,102341.41
2024-01-26T09:59:12.972Z,102341.00
2024-01-26T10:01:43.407Z,102345.75
2024-01-26T10:04:10.923Z,102345.75
2024-01-26T10:06:39.434Z,102347.75
2024-01-26T10:09:10.217Z,102342.44
2024-01-26T10:11:38.037Z,102345.72
2024-01-26T10:14:05.343Z,102333.81
2024-01-26T10:16:32.800Z,102336.19
2024-01-26T10:19:00.520Z,102326.31
2024-01-26T10:21:28.155Z,102325.38
2024-01-26T10:23:55.987Z,102318.91
2024-01-26T10:26:23.539Z,102329.44
2024-01-26T10:28:52.376Z,102322.00
2024-01-26T10:31:20.773Z,102315.41
2024-01-26T10:33:51.709Z,102309.25
2024-01-26T10:36:21.327Z,102306.44
2024-01-26T10:38:52.925Z,102308.97
2024-01-26T10:41:22.607Z,102301.75
2024-01-26T10:43:54.234Z,102301.00
2024-01-26T10:46:21.845Z,102297.22
2024-01-26T10:48:50.483Z,102294.16
2024-01-26T10:51:19.161Z,102293.22
2024-01-26T10:53:47.969Z,102282.25
2024-01-26T10:56:15.955Z,102276.75
2024-01-26T10:58:43.362Z,102274.59
2024-01-26T11:01:13.650Z,102270.41
2024-01-26T11:03:41.429Z,102275.06
2024-01-26T11:06:11.083Z,102270.59
2024-01-26T11:08:41.956Z,102259.56
2024-01-26T11:11:09.881Z,102258.63
2024-01-26T11:13:39.106Z,102255.91
2024-01-26T11:16:07.622Z,102253.53
2024-01-26T11:18:39.648Z,102244.59
2024-01-26T11:21:07.283Z,102243.56
2024-01-26T11:23:43.063Z,102234.09
2024-01-26T11:26:17.885Z,102220.47
2024-01-26T11:28:47.402Z,102206.22
2024-01-26T11:31:14.914Z,102219.56
2024-01-26T11:33:42.607Z,102217.94
2024-01-26T11:36:16.303Z,102207.78
2024-01-26T11:38:44.453Z,102215.09
2024-01-26T11:41:12.553Z,102206.50
2024-01-26T11:43:48.514Z,102203.66
2024-01-26T11:46:17.482Z,102202.03
2024-01-26T11:48:44.902Z,102200.31
2024-01-26T11:51:12.773Z,102198.16
2024-01-26T11:53:40.433Z,102203.66
2024-01-26T11:56:08.066Z,102199.03
2024-01-26T11:58:36.620Z,102193.09
2024-01-26T12:01:06.700Z,102194.56
2024-01-26T12:03:34.408Z,102193.94
2024-01-26T12:06:02.553Z,102186.97
2024-01-26T12:08:30.377Z,102186.22
2024-01-26T12:10:58.621Z,102192.44
2024-01-26T12:13:26.758Z,102177.69
2024-01-26T12:15:54.180Z,102179.31
2024-01-26T12:18:21.742Z,102175.44
2024-01-26T12:20:50.029Z,102175.44
2024-01-26T12:23:22.536Z,102170.22
2024-01-26T12:25:54.252Z,102174.91
2024-01-26T12:28:22.648Z,102175.06
2024-01-26T12:30:51.468Z,102164.25
2024-01-26T12:33:19.261Z,102165.84
2024-01-26T12:35:49.171Z,102156.97
2024-01-26T12:38:17.272Z,102153.38
2024-01-26T12:40:45.822Z,102156.81
2024-01-26T12:43:13.547Z,102149.03
2024-01-26T12:45:40.814Z,102149.91
2024-01-26T12:48:09.626Z,102150.81
2024-01-26T12:50:37.591Z,102146.66
2024-01-26T12:53:04.965Z,102137.19
2024-01-26T12:55:32.342Z,102143.78
2024-01-26T12:57:59.626Z,102141.72
2024-01-26T13:00:28.580Z,102132.25
2024-01-26T13:02:57.486Z,102137.34
2024-01-26T13:05:25.832Z,102132.69
2024-01-26T13:07:53.497Z,102142.25
2024-01-26T13:10:20.905Z,102149.78
2024-01-26T13:12:48.365Z,102149.44
2024-01-26T13:15:15.836Z,102143.56
2024-01-26T13:17:44.029Z,102142.56
2024-01-26T13:20:19.395Z,102141.66
2024-01-26T13:22:49.502Z,102143.97
2024-01-26T13:25:17.242Z,102143.53
2024-01-26T13:27:44.914Z,102142.94
2024-01-26T13:30:13.093Z,102141.22
2024-01-26T13:32:40.880Z,102135.56
2024-01-26T13:35:08.588Z,102129.16
2024-01-26T13:37:36.970Z,102129.44
2024-01-26T13:40:07.658Z,102135.41
2024-01-26T13:42:35.587Z,102128.16
2024-01-26T13:45:04.098Z,102132.84
2024-01-26T13:47:31.688Z,102143.06
2024-01-26T13:50:00.492Z,102132.31
2024-01-26T13:52:28.166Z,102136.59
2024-01-26T13:54:55.504Z,102132.69
2024-01-26T13:57:23.101Z,102133.06
2024-01-26T13:59:53.873Z,102125.69
2024-01-26T14:02:41.310Z,102145.25
2024-01-26T14:05:09.239Z,102147.13
2024-01-26T14:07:36.815Z,102152.25
2024-01-26T14:10:05.089Z,102146.00
2024-01-26T14:12:32.410Z,102144.88
2024-01-26T14:15:01.458Z,102141.44
2024-01-26T14:17:28.808Z,102145.78
2024-01-26T14:19:56.394Z,102144.22
2024-01-26T14:22:23.638Z,102151.22
2024-01-26T14:24:51.006Z,102154.22
2024-01-26T14:27:20.620Z,102153.38
2024-01-26T14:29:48.127Z,102158.25
2024-01-26T14:32:15.415Z,102161.97
2024-01-26T14:34:43.034Z,102157.00
2024-01-26T14:37:10.466Z,102158.00
2024-01-26T14:39:39.859Z,102158.25
2024-01-26T14:42:08.087Z,102166.59
2024-01-26T14:44:36.893Z,102170.06
2024-01-26T14:47:04.894Z,102169.59
2024-01-26T14:49:34.607Z,102172.78
2024-01-26T14:52:04.202Z,102166.69
2024-01-26T14:54:33.100Z,102164.97
2024-01-26T14:57:00.568Z,102167.91
2024-01-26T14:59:29.336Z,102158.91
2024-01-26T15:01:58.260Z,102166.00
2024-01-26T15:04:25.542Z,102158.88
2024-01-26T15:06:54.006Z,102170.31
2024-01-26T15:09:21.521Z,102159.38
2024-01-26T15:11:48.936Z,102151.59
2024-01-26T15:14:16.425Z,102151.00
2024-01-26T15:16:43.771Z,102156.75
2024-01-26T15:19:11.260Z,102163.06
2024-01-26T15:21:42.731Z,102163.50
2024-01-26T15:24:12.073Z,102156.94
2024-01-26T15:26:45.698Z,102161.09
2024-01-26T15:29:13.268Z,102169.66
2024-01-26T15:31:40.564Z,102165.59
2024-01-26T15:34:08.163Z,102166.97
2024-01-26T15:36:36.069Z,102170.84
2024-01-26T15:39:05.043Z,102189.22
2024-01-26T15:41:32.366Z,102188.41
2024-01-26T15:43:59.696Z,102180.25
2024-01-26T15:46:27.954Z,102196.78
2024-01-26T15:48:55.450Z,102182.03
2024-01-26T15:51:22.919Z,102180.22
2024-01-26T15:53:50.400Z,102188.44
2024-01-26T15:56:17.934Z,102182.97
2024-01-26T15:58:46.888Z,102186.06
2024-01-26T16:01:18.323Z,102181.22
2024-01-26T16:03:52.936Z,102182.34
2024-01-26T16:06:20.482Z,102171.97
2024-01-26T16:08:48.403Z,102171.72
2024-01-26T16:11:20.592Z,102176.94
2024-01-26T16:13:49.481Z,102176.94
2024-01-26T16:16:17.816Z,102168.75
2024-01-26T16:18:46.249Z,102172.84
2024-01-26T16:21:13.814Z,102173.72
2024-01-26T16:23:41.304Z,102165.53
2024-01-26T16:26:08.936Z,102171.06
2024-01-26T16:28:36.307Z,102165.09
2024-01-26T16:31:03.647Z,102165.44
2024-01-26T16:33:31.019Z,102160.53
2024-01-26T16:35:58.546Z,102164.09
2024-01-26T16:38:25.827Z,102163.59
2024-01-26T16:40:53.295Z,102167.13
2024-01-26T16:43:20.866Z,102173.66
2024-01-26T16:45:48.241Z,102173.41
2024-01-26T16:48:16.015Z,102175.09
2024-01-26T16:50:43.702Z,102180.63
2024-01-26T16:53:11.156Z,102178.19
2024-01-26T16:55:38.389Z,102170.81
2024-01-26T16:58:05.858Z,102178.44
2024-01-26T17:00:33.214Z,102181.47
2024-01-26T17:03:01.300Z,102174.66
2024-01-26T17:05:30.153Z,102182.03
2024-01-26T17:07:57.970Z,102183.94
2024-01-26T17:10:25.547Z,102178.47
2024-01-26T17:12:53.322Z,102189.41
2024-01-26T17:15:20.695Z,102189.97
2024-01-26T17:17:49.350Z,102194.03
2024-01-26T17:20:17.078Z,102197.59
2024-01-26T17:22:44.413Z,102197.34
2024-01-26T17:25:11.661Z,102200.31
2024-01-26T17:27:39.367Z,102205.28
2024-01-26T17:30:07.730Z,102206.38
2024-01-26T17:32:40.154Z,102207.19
2024-01-26T17:35:08.072Z,102191.91
2024-01-26T17:37:35.634Z,102204.72
2024-01-26T17:40:04.475Z,102205.81
2024-01-26T17:42:32.755Z,102206.09
2024-01-26T17:45:00.309Z,102198.19
2024-01-26T17:47:27.856Z,102206.94
2024-01-26T17:49:55.662Z,102209.13
2024-01-26T17:52:25.057Z,102206.13
2024-01-26T17:54:52.830Z,102209.13
2024-01-26T17:57:20.363Z,102205.59
2024-01-26T17:59:48.147Z,102203.41
2024-01-26T18:02:16.378Z,102199.59
2024-01-26T18:04:43.903Z,102204.25
2024-01-26T18:07:11.310Z,102196.06
2024-01-26T18:09:38.667Z,102201.28
2024-01-26T18:12:06.328Z,102209.72
2024-01-26T18:14:34.008Z,102201.53
2024-01-26T18:17:01.314Z,102214.13
2024-01-26T18:19:28.779Z,102208.38
2024-01-26T18:21:56.321Z,102208.91
2024-01-26T18:24:23.817Z,102217.09
2024-01-26T18:26:51.927Z,102211.13
2024-01-26T18:29:19.180Z,102220.69
2024-01-26T18:31:46.716Z,102221.25
2024-01-26T18:34:14.311Z,102215.22
2024-01-26T18:36:41.789Z,102216.88
2024-01-26T18:39:13.754Z,102219.66
2024-01-26T18:41:41.239Z,102218.81
2024-01-26T18:44:09.832Z,102219.91
2024-01-26T18:46:37.067Z,102215.25
2024-01-26T18:49:05.599Z,102214.44
2024-01-26T18:51:33.028Z,102216.88
2024-01-26T18:54:02.095Z,102218.53
2024-01-26T18:56:30.168Z,102212.81
2024-01-26T18:58:57.736Z,102213.06
2024-01-26T19:01:25.498Z,102219.09
2024-01-26T19:03:54.827Z,102224.53
2024-01-26T19:06:23.771Z,102226.47
2024-01-26T19:08:51.309Z,102219.91
2024-01-26T19:11:18.911Z,102223.47
2024-01-26T19:13:46.348Z,102230.56
2024-01-26T19:16:16.708Z,102235.19
2024-01-26T19:18:51.368Z,102230.03
2024-01-26T19:21:19.536Z,102231.94
2024-01-26T19:23:47.310Z,102227.03
2024-01-26T19:26:14.985Z,102231.38
2024-01-26T19:28:42.331Z,102222.94
2024-01-26T19:31:09.701Z,102222.13
2024-01-26T19:33:37.910Z,102219.09
2024-01-26T19:36:05.761Z,102214.47
2024-01-26T19:38:34.216Z,102222.38
2024-01-26T19:41:02.412Z,102213.13
2024-01-26T19:43:30.801Z,102213.38
2024-01-26T19:45:58.090Z,102220.75
2024-01-26T19:48:25.606Z,102218.03
2024-01-26T19:50:53.052Z,102220.19
2024-01-26T19:53:20.952Z,102222.41
2024-01-26T19:55:52.278Z,102222.94
2024-01-26T19:58:20.082Z,102214.75
2024-01-26T20:00:54.213Z,102216.41
2024-01-26T20:03:24.921Z,102213.94
2024-01-26T20:05:53.549Z,102220.50
2024-01-26T20:08:24.279Z,102212.31
2024-01-26T20:10:52.653Z,102210.66
2024-01-26T20:13:21.674Z,102206.56
2024-01-26T20:15:49.110Z,102209.56
2024-01-26T20:18:17.940Z,102212.59
2024-01-26T20:20:45.343Z,102206.03
2024-01-26T20:23:12.801Z,102207.13
2024-01-26T20:25:43.866Z,102200.00
2024-01-26T20:28:11.364Z,102197.28
2024-01-26T20:30:38.849Z,102195.66
2024-01-26T20:33:06.511Z,102192.94
2024-01-26T20:35:35.136Z,102200.00
2024-01-26T20:38:02.589Z,102192.66
2024-01-26T20:40:30.268Z,102189.97
2024-01-26T20:43:01.551Z,102184.50
2024-01-26T20:45:30.006Z,102182.59
2024-01-26T20:47:58.396Z,102182.84
2024-01-26T20:50:28.327Z,102192.41
2024-01-26T20:52:55.783Z,102186.41
2024-01-26T20:55:23.049Z,102182.06
2024-01-26T20:57:54.833Z,102194.28
2024-01-26T21:00:23.820Z,102184.50
2024-01-26T21:02:52.059Z,102178.75
2024-01-26T21:05:21.374Z,102173.31
2024-01-26T21:07:59.810Z,102170.31
2024-01-26T21:10:29.838Z,102184.75
2024-01-26T21:12:57.760Z,102175.50
2024-01-26T21:15:26.053Z,102169.75
2024-01-26T21:17:54.265Z,102173.84
2024-01-26T21:20:21.861Z,102173.59
2024-01-26T21:22:54.187Z,102177.13
2024-01-26T21:25:21.520Z,102179.88
2024-01-26T21:27:50.207Z,102170.31
2024-01-26T21:30:18.074Z,102175.22
2024-01-26T21:32:46.049Z,102168.41
2024-01-26T21:35:13.550Z,102174.94
2024-01-26T21:37:42.911Z,102175.47
2024-01-26T21:40:11.592Z,102180.13
2024-01-26T21:42:38.993Z,102174.38
2024-01-26T21:45:07.051Z,102168.66
2024-01-26T21:47:35.169Z,102179.84
2024-01-26T21:50:03.037Z,102178.22
2024-01-26T21:52:30.805Z,102174.41
2024-01-26T21:54:58.276Z,102167.84
2024-01-26T21:57:25.868Z,102171.94
2024-01-26T21:59:53.632Z,102176.53
2024-01-26T22:02:21.996Z,102176.00
2024-01-26T22:04:49.310Z,102181.75
2024-01-26T22:07:17.491Z,102183.66
2024-01-26T22:09:46.640Z,102185.00
2024-01-26T22:12:16.001Z,102176.56
2024-01-26T22:14:43.449Z,102191.53
2024-01-26T22:17:10.840Z,102184.72
2024-01-26T22:19:38.383Z,102188.81
2024-01-26T22:22:05.839Z,102197.25
2024-01-26T22:24:33.667Z,102187.44
2024-01-26T22:27:01.028Z,102180.31
2024-01-26T22:29:28.413Z,102181.44
2024-01-26T22:31:55.812Z,102182.78
2024-01-26T22:34:24.379Z,102177.31
2024-01-26T22:36:51.809Z,102184.16
2024-01-26T22:39:21.456Z,102182.50
2024-01-26T22:41:50.402Z,102180.06
2024-01-26T22:44:17.825Z,102175.94
2024-01-26T22:46:45.465Z,102174.84
2024-01-26T22:49:12.980Z,102170.25
2024-01-26T22:51:40.483Z,102175.69
2024-01-26T22:54:28.180Z,102170.19
2024-01-26T22:56:55.763Z,102175.38
2024-01-26T22:59:23.229Z,102170.19
2024-01-26T23:01:52.780Z,102168.81
2024-01-26T23:04:20.163Z,102169.91
2024-01-26T23:06:48.991Z,102165.00
2024-01-26T23:09:16.767Z,102161.72
2024-01-26T23:11:44.409Z,102166.63
2024-01-26T23:14:11.796Z,102157.91
2024-01-26T23:16:39.250Z,102160.34
2024-01-26T23:19:06.750Z,102161.44
2024-01-26T23:21:34.498Z,102157.91
2024-01-26T23:24:02.682Z,102150.78
2024-01-26T23:26:30.029Z,102144.25
2024-01-26T23:28:57.431Z,102144.53
2024-01-26T23:31:24.880Z,102145.88
2024-01-26T23:33:52.387Z,102142.34
2024-01-26T23:36:19.901Z,102142.59
2024-01-26T23:38:47.172Z,102145.31
2024-01-26T23:41:14.681Z,102145.03
2024-01-26T23:43:41.998Z,102139.88
2024-01-26T23:46:09.959Z,102136.59
2024-01-26T23:48:40.627Z,102138.47
2024-01-26T23:51:08.686Z,102131.63
2024-01-26T23:53:36.086Z,102123.72
2024-01-26T23:56:04.365Z,102129.44
2024-01-26T23:58:31.815Z,102125.88
